sensor_id;sensor_type;location;lat;lon;timestamp;temperature;humidity
23520;DHT22;11936;50.820;4.336;2023-04-24T00:01:28;11.10;99.90
23520;DHT22;11936;50.820;4.336;2023-04-24T00:03:55;11.00;99.90
23520;DHT22;11936;50.820;4.336;2023-04-24T00:06:27;10.90;99.90
23520;DHT22;11936;50.820;4.336;2023-04-24T00:09:00;10.90;99.90
23520;DHT22;11936;50.820;4.336;2023-04-24T00:11:26;10.90;99.90
23520;DHT22;11936;50.820;4.336;2023-04-24T00:13:52;10.80;99.90
23520;DHT22;11936;50.820;4.336;2023-04-24T00:16:19;11.00;99.90
23520;DHT22;11936;50.820;4.336;2023-04-24T00:18:45;11.00;99.90
23520;DHT22;11936;50.820;4.336;2023-04-24T00:21:11;11.00;99.90
23520;DHT22;11936;50.820;4.336;2023-04-24T00:23:36;10.90;99.90
23520;DHT22;11936;50.820;4.336;2023-04-24T00:26:02;10.80;99.90
23520;DHT22;11936;50.820;4.336;2023-04-24T00:28:28;10.90;99.90
23520;DHT22;11936;50.820;4.336;2023-04-24T00:30:54;11.00;99.90
23520;DHT22;11936;50.820;4.336;2023-04-24T00:33:20;11.10;99.90
23520;DHT22;11936;50.820;4.336;2023-04-24T00:35:45;11.20;99.90
23520;DHT22;11936;50.820;4.336;2023-04-24T00:38:11;11.00;99.90
23520;DHT22;11936;50.820;4.336;2023-04-24T00:40:37;11.00;99.90
23520;DHT22;11936;50.820;4.336;2023-04-24T00:43:02;11.00;99.90
23520;DHT22;11936;50.820;4.336;2023-04-24T00:45:29;10.90;99.90
23520;DHT22;11936;50.820;4.336;2023-04-24T00:47:56;10.90;99.90
23520;DHT22;11936;50.820;4.336;2023-04-24T00:50:23;10.90;99.90
23520;DHT22;11936;50.820;4.336;2023-04-24T00:52:49;10.70;99.90
23520;DHT22;11936;50.820;4.336;2023-04-24T00:55:15;10.70;99.90
23520;DHT22;11936;50.820;4.336;2023-04-24T00:57:41;10.70;99.90
23520;DHT22;11936;50.820;4.336;2023-04-24T01:00:07;10.60;99.90
23520;DHT22;11936;50.820;4.336;2023-04-24T01:02:41;10.80;99.90
23520;DHT22;11936;50.820;4.336;2023-04-24T01:05:11;10.80;99.90
23520;DHT22;11936;50.820;4.336;2023-04-24T01:07:39;10.70;99.90
23520;DHT22;11936;50.820;4.336;2023-04-24T01:10:06;10.70;99.90
23520;DHT22;11936;50.820;4.336;2023-04-24T01:12:33;10.80;99.90
23520;DHT22;11936;50.820;4.336;2023-04-24T01:14:58;10.70;99.90
23520;DHT22;11936;50.820;4.336;2023-04-24T01:17:24;10.60;99.90
23520;DHT22;11936;50.820;4.336;2023-04-24T01:19:50;10.60;99.90
23520;DHT22;11936;50.820;4.336;2023-04-24T01:22:19;10.50;99.90
23520;DHT22;11936;50.820;4.336;2023-04-24T01:24:46;10.40;99.90
23520;DHT22;11936;50.820;4.336;2023-04-24T01:27:12;10.40;99.90
23520;DHT22;11936;50.820;4.336;2023-04-24T01:29:38;10.30;99.90
23520;DHT22;11936;50.820;4.336;2023-04-24T01:32:04;10.30;99.90
23520;DHT22;11936;50.820;4.336;2023-04-24T01:34:31;10.30;99.90
23520;DHT22;11936;50.820;4.336;2023-04-24T01:36:57;10.20;99.90
23520;DHT22;11936;50.820;4.336;2023-04-24T01:39:23;10.10;99.90
23520;DHT22;11936;50.820;4.336;2023-04-24T01:41:51;10.20;99.90
23520;DHT22;11936;50.820;4.336;2023-04-24T01:44:18;10.20;99.90
23520;DHT22;11936;50.820;4.336;2023-04-24T01:46:43;10.30;99.90
23520;DHT22;11936;50.820;4.336;2023-04-24T01:49:09;10.40;99.90
23520;DHT22;11936;50.820;4.336;2023-04-24T01:51:35;10.40;99.90
23520;DHT22;11936;50.820;4.336;2023-04-24T01:54:01;10.40;99.90
23520;DHT22;11936;50.820;4.336;2023-04-24T01:56:29;10.50;99.90
23520;DHT22;11936;50.820;4.336;2023-04-24T01:58:55;10.60;99.90
23520;DHT22;11936;50.820;4.336;2023-04-24T02:01:23;10.70;99.90
23520;DHT22;11936;50.820;4.336;2023-04-24T02:03:48;10.80;99.90
23520;DHT22;11936;50.820;4.336;2023-04-24T02:06:14;10.80;99.90
23520;DHT22;11936;50.820;4.336;2023-04-24T02:08:40;10.70;99.90
23520;DHT22;11936;50.820;4.336;2023-04-24T02:11:06;10.80;99.90
23520;DHT22;11936;50.820;4.336;2023-04-24T02:13:31;10.70;99.90
23520;DHT22;11936;50.820;4.336;2023-04-24T02:15:58;10.70;99.90
23520;DHT22;11936;50.820;4.336;2023-04-24T02:18:24;10.50;99.90
23520;DHT22;11936;50.820;4.336;2023-04-24T02:20:50;10.40;99.90
23520;DHT22;11936;50.820;4.336;2023-04-24T02:23:15;10.40;99.90
23520;DHT22;11936;50.820;4.336;2023-04-24T02:25:41;10.30;99.90
23520;DHT22;11936;50.820;4.336;2023-04-24T02:28:07;10.10;99.90
23520;DHT22;11936;50.820;4.336;2023-04-24T02:30:32;10.10;99.90
23520;DHT22;11936;50.820;4.336;2023-04-24T02:32:58;10.10;99.90
23520;DHT22;11936;50.820;4.336;2023-04-24T02:35:24;10.10;99.90
23520;DHT22;11936;50.820;4.336;2023-04-24T02:37:49;10.20;99.90
23520;DHT22;11936;50.820;4.336;2023-04-24T02:40:15;10.20;99.90
23520;DHT22;11936;50.820;4.336;2023-04-24T02:42:41;10.10;99.90
23520;DHT22;11936;50.820;4.336;2023-04-24T02:45:07;10.20;99.90
23520;DHT22;11936;50.820;4.336;2023-04-24T02:47:33;10.30;99.90
23520;DHT22;11936;50.820;4.336;2023-04-24T02:49:58;10.40;99.90
23520;DHT22;11936;50.820;4.336;2023-04-24T02:52:24;10.30;99.90
23520;DHT22;11936;50.820;4.336;2023-04-24T02:54:50;10.20;99.90
23520;DHT22;11936;50.820;4.336;2023-04-24T02:57:15;10.30;99.90
23520;DHT22;11936;50.820;4.336;2023-04-24T02:59:41;10.20;99.90
23520;DHT22;11936;50.820;4.336;2023-04-24T03:02:06;10.20;99.90
23520;DHT22;11936;50.820;4.336;2023-04-24T03:04:32;10.20;99.90
23520;DHT22;11936;50.820;4.336;2023-04-24T03:06:58;10.20;99.90
23520;DHT22;11936;50.820;4.336;2023-04-24T03:09:24;10.20;99.90
23520;DHT22;11936;50.820;4.336;2023-04-24T03:11:50;10.10;99.90
23520;DHT22;11936;50.820;4.336;2023-04-24T03:14:16;10.20;99.90
23520;DHT22;11936;50.820;4.336;2023-04-24T03:16:42;10.20;99.90
23520;DHT22;11936;50.820;4.336;2023-04-24T03:19:08;10.10;99.90
23520;DHT22;11936;50.820;4.336;2023-04-24T03:21:33;10.20;99.90
23520;DHT22;11936;50.820;4.336;2023-04-24T03:24:01;10.10;99.90
23520;DHT22;11936;50.820;4.336;2023-04-24T03:26:26;10.00;99.90
23520;DHT22;11936;50.820;4.336;2023-04-24T03:28:52;10.10;99.90
23520;DHT22;11936;50.820;4.336;2023-04-24T03:31:18;10.20;99.90
23520;DHT22;11936;50.820;4.336;2023-04-24T03:33:44;10.20;99.90
23520;DHT22;11936;50.820;4.336;2023-04-24T03:36:10;10.20;99.90
23520;DHT22;11936;50.820;4.336;2023-04-24T03:38:35;10.20;99.90
23520;DHT22;11936;50.820;4.336;2023-04-24T03:41:01;10.20;99.90
23520;DHT22;11936;50.820;4.336;2023-04-24T03:43:27;10.30;99.90
23520;DHT22;11936;50.820;4.336;2023-04-24T03:45:53;10.20;99.90
23520;DHT22;11936;50.820;4.336;2023-04-24T03:48:18;10.10;99.90
23520;DHT22;11936;50.820;4.336;2023-04-24T03:50:44;10.10;99.90
23520;DHT22;11936;50.820;4.336;2023-04-24T03:53:09;10.20;99.90
23520;DHT22;11936;50.820;4.336;2023-04-24T03:55:35;10.00;99.90
23520;DHT22;11936;50.820;4.336;2023-04-24T03:58:01;10.00;99.90
23520;DHT22;11936;50.820;4.336;2023-04-24T04:00:26;10.10;99.90
23520;DHT22;11936;50.820;4.336;2023-04-24T04:02:53;10.10;99.90
23520;DHT22;11936;50.820;4.336;2023-04-24T04:05:18;10.20;99.90
23520;DHT22;11936;50.820;4.336;2023-04-24T04:07:44;10.30;99.90
23520;DHT22;11936;50.820;4.336;2023-04-24T04:10:10;10.40;99.90
23520;DHT22;11936;50.820;4.336;2023-04-24T04:12:37;10.40;99.90
23520;DHT22;11936;50.820;4.336;2023-04-24T04:15:03;10.50;99.90
23520;DHT22;11936;50.820;4.336;2023-04-24T04:17:29;10.60;99.90
23520;DHT22;11936;50.820;4.336;2023-04-24T04:19:55;10.70;99.90
23520;DHT22;11936;50.820;4.336;2023-04-24T04:22:21;10.80;99.90
23520;DHT22;11936;50.820;4.336;2023-04-24T04:24:47;10.80;99.90
23520;DHT22;11936;50.820;4.336;2023-04-24T04:27:13;10.60;99.90
23520;DHT22;11936;50.820;4.336;2023-04-24T04:29:38;10.60;99.90
23520;DHT22;11936;50.820;4.336;2023-04-24T04:32:05;10.60;99.90
23520;DHT22;11936;50.820;4.336;2023-04-24T04:34:31;10.50;99.90
23520;DHT22;11936;50.820;4.336;2023-04-24T04:36:58;10.60;99.90
23520;DHT22;11936;50.820;4.336;2023-04-24T04:39:27;10.50;99.90
23520;DHT22;11936;50.820;4.336;2023-04-24T04:41:53;10.40;99.90
23520;DHT22;11936;50.820;4.336;2023-04-24T04:44:19;10.40;99.90
23520;DHT22;11936;50.820;4.336;2023-04-24T04:46:45;10.40;99.90
23520;DHT22;11936;50.820;4.336;2023-04-24T04:49:11;10.40;99.90
23520;DHT22;11936;50.820;4.336;2023-04-24T04:51:37;10.40;99.90
23520;DHT22;11936;50.820;4.336;2023-04-24T04:54:02;10.40;99.90
23520;DHT22;11936;50.820;4.336;2023-04-24T04:56:28;10.20;99.90
23520;DHT22;11936;50.820;4.336;2023-04-24T04:58:55;10.10;99.90
23520;DHT22;11936;50.820;4.336;2023-04-24T05:01:20;10.20;99.90
23520;DHT22;11936;50.820;4.336;2023-04-24T05:03:48;10.20;99.90
23520;DHT22;11936;50.820;4.336;2023-04-24T05:06:13;10.30;99.90
23520;DHT22;11936;50.820;4.336;2023-04-24T05:08:39;10.30;99.90
23520;DHT22;11936;50.820;4.336;2023-04-24T05:11:05;10.40;99.90
23520;DHT22;11936;50.820;4.336;2023-04-24T05:13:31;10.40;99.90
23520;DHT22;11936;50.820;4.336;2023-04-24T05:15:57;10.30;99.90
23520;DHT22;11936;50.820;4.336;2023-04-24T05:18:23;10.30;99.90
23520;DHT22;11936;50.820;4.336;2023-04-24T05:20:49;10.20;99.90
23520;DHT22;11936;50.820;4.336;2023-04-24T05:23:14;10.30;99.90
23520;DHT22;11936;50.820;4.336;2023-04-24T05:25:43;10.30;99.90
23520;DHT22;11936;50.820;4.336;2023-04-24T05:28:09;10.30;99.90
23520;DHT22;11936;50.820;4.336;2023-04-24T05:30:35;10.20;99.90
23520;DHT22;11936;50.820;4.336;2023-04-24T05:33:00;10.20;99.90
23520;DHT22;11936;50.820;4.336;2023-04-24T05:35:26;10.20;99.90
23520;DHT22;11936;50.820;4.336;2023-04-24T05:37:52;10.20;99.90
23520;DHT22;11936;50.820;4.336;2023-04-24T05:40:17;10.20;99.90
23520;DHT22;11936;50.820;4.336;2023-04-24T05:42:43;10.30;99.90
23520;DHT22;11936;50.820;4.336;2023-04-24T05:45:09;10.30;99.90
23520;DHT22;11936;50.820;4.336;2023-04-24T05:47:40;10.40;99.90
23520;DHT22;11936;50.820;4.336;2023-04-24T05:50:06;10.40;99.90
23520;DHT22;11936;50.820;4.336;2023-04-24T05:52:31;10.40;99.90
23520;DHT22;11936;50.820;4.336;2023-04-24T05:54:57;10.40;99.90
23520;DHT22;11936;50.820;4.336;2023-04-24T05:57:24;10.40;99.90
23520;DHT22;11936;50.820;4.336;2023-04-24T05:59:50;10.20;99.90
23520;DHT22;11936;50.820;4.336;2023-04-24T06:02:16;10.20;99.90
23520;DHT22;11936;50.820;4.336;2023-04-24T06:04:42;10.10;99.90
23520;DHT22;11936;50.820;4.336;2023-04-24T06:07:10;10.10;99.90
23520;DHT22;11936;50.820;4.336;2023-04-24T06:09:36;10.20;99.90
23520;DHT22;11936;50.820;4.336;2023-04-24T06:12:04;10.20;99.90
23520;DHT22;11936;50.820;4.336;2023-04-24T06:14:34;10.20;99.90
23520;DHT22;11936;50.820;4.336;2023-04-24T06:17:00;10.20;99.90
23520;DHT22;11936;50.820;4.336;2023-04-24T06:19:25;10.20;99.90
23520;DHT22;11936;50.820;4.336;2023-04-24T06:21:51;10.10;99.90
23520;DHT22;11936;50.820;4.336;2023-04-24T06:24:16;10.10;99.90
23520;DHT22;11936;50.820;4.336;2023-04-24T06:26:42;10.00;99.90
23520;DHT22;11936;50.820;4.336;2023-04-24T06:29:08;10.00;99.90
23520;DHT22;11936;50.820;4.336;2023-04-24T06:31:34;10.00;99.90
23520;DHT22;11936;50.820;4.336;2023-04-24T06:34:08;10.00;99.90
23520;DHT22;11936;50.820;4.336;2023-04-24T06:36:34;10.10;99.90
23520;DHT22;11936;50.820;4.336;2023-04-24T06:39:01;10.00;99.90
23520;DHT22;11936;50.820;4.336;2023-04-24T06:41:27;10.00;99.90
23520;DHT22;11936;50.820;4.336;2023-04-24T06:43:54;10.00;99.90
23520;DHT22;11936;50.820;4.336;2023-04-24T06:46:20;10.10;99.90
23520;DHT22;11936;50.820;4.336;2023-04-24T06:48:49;10.00;99.90
23520;DHT22;11936;50.820;4.336;2023-04-24T06:51:15;10.00;99.90
23520;DHT22;11936;50.820;4.336;2023-04-24T06:53:40;10.00;99.90
23520;DHT22;11936;50.820;4.336;2023-04-24T06:56:06;10.00;99.90
23520;DHT22;11936;50.820;4.336;2023-04-24T06:58:32;10.10;99.90
23520;DHT22;11936;50.820;4.336;2023-04-24T07:00:58;10.10;99.90
23520;DHT22;11936;50.820;4.336;2023-04-24T07:03:23;10.20;99.90
23520;DHT22;11936;50.820;4.336;2023-04-24T07:05:49;10.30;99.90
23520;DHT22;11936;50.820;4.336;2023-04-24T07:08:15;10.50;99.90
23520;DHT22;11936;50.820;4.336;2023-04-24T07:10:43;10.50;99.90
23520;DHT22;11936;50.820;4.336;2023-04-24T07:13:09;10.40;99.90
23520;DHT22;11936;50.820;4.336;2023-04-24T07:15:35;10.30;99.90
23520;DHT22;11936;50.820;4.336;2023-04-24T07:18:01;10.30;99.90
23520;DHT22;11936;50.820;4.336;2023-04-24T07:20:26;10.50;99.90
23520;DHT22;11936;50.820;4.336;2023-04-24T07:22:52;10.60;99.90
23520;DHT22;11936;50.820;4.336;2023-04-24T07:25:19;10.60;99.90
23520;DHT22;11936;50.820;4.336;2023-04-24T07:27:45;10.60;99.90
23520;DHT22;11936;50.820;4.336;2023-04-24T07:30:11;10.60;99.90
23520;DHT22;11936;50.820;4.336;2023-04-24T07:32:37;10.60;99.90
23520;DHT22;11936;50.820;4.336;2023-04-24T07:35:02;10.60;99.90
23520;DHT22;11936;50.820;4.336;2023-04-24T07:37:28;10.70;99.90
23520;DHT22;11936;50.820;4.336;2023-04-24T07:39:55;10.70;99.90
23520;DHT22;11936;50.820;4.336;2023-04-24T07:42:20;10.70;99.90
23520;DHT22;11936;50.820;4.336;2023-04-24T07:44:46;10.70;99.90
23520;DHT22;11936;50.820;4.336;2023-04-24T07:47:13;10.60;99.90
23520;DHT22;11936;50.820;4.336;2023-04-24T07:49:44;10.70;99.90
23520;DHT22;11936;50.820;4.336;2023-04-24T07:52:12;10.70;99.90
23520;DHT22;11936;50.820;4.336;2023-04-24T07:54:38;10.80;99.90
23520;DHT22;11936;50.820;4.336;2023-04-24T07:57:04;10.80;99.90
23520;DHT22;11936;50.820;4.336;2023-04-24T07:59:31;10.70;99.90
23520;DHT22;11936;50.820;4.336;2023-04-24T08:01:57;10.70;99.90
23520;DHT22;11936;50.820;4.336;2023-04-24T08:04:23;10.60;99.90
23520;DHT22;11936;50.820;4.336;2023-04-24T08:06:48;10.60;99.90
23520;DHT22;11936;50.820;4.336;2023-04-24T08:09:14;10.60;99.90
23520;DHT22;11936;50.820;4.336;2023-04-24T08:11:40;10.70;99.90
23520;DHT22;11936;50.820;4.336;2023-04-24T08:14:05;10.90;99.90
23520;DHT22;11936;50.820;4.336;2023-04-24T08:16:32;10.90;99.90
23520;DHT22;11936;50.820;4.336;2023-04-24T08:18:58;10.90;99.90
23520;DHT22;11936;50.820;4.336;2023-04-24T08:21:24;10.80;99.90
23520;DHT22;11936;50.820;4.336;2023-04-24T08:23:52;11.00;99.90
23520;DHT22;11936;50.820;4.336;2023-04-24T08:26:18;11.10;99.90
23520;DHT22;11936;50.820;4.336;2023-04-24T08:28:43;11.10;99.90
23520;DHT22;11936;50.820;4.336;2023-04-24T08:31:12;11.20;99.90
23520;DHT22;11936;50.820;4.336;2023-04-24T08:33:39;11.30;99.90
23520;DHT22;11936;50.820;4.336;2023-04-24T08:36:07;11.30;99.90
23520;DHT22;11936;50.820;4.336;2023-04-24T08:38:33;11.20;99.90
23520;DHT22;11936;50.820;4.336;2023-04-24T08:41:00;11.30;99.90
23520;DHT22;11936;50.820;4.336;2023-04-24T08:43:27;11.30;99.90
23520;DHT22;11936;50.820;4.336;2023-04-24T08:45:57;11.30;99.90
23520;DHT22;11936;50.820;4.336;2023-04-24T08:48:22;11.30;99.90
23520;DHT22;11936;50.820;4.336;2023-04-24T08:50:50;11.30;99.90
23520;DHT22;11936;50.820;4.336;2023-04-24T08:53:18;11.30;99.90
23520;DHT22;11936;50.820;4.336;2023-04-24T08:55:47;11.40;99.90
23520;DHT22;11936;50.820;4.336;2023-04-24T08:58:13;11.40;99.90
23520;DHT22;11936;50.820;4.336;2023-04-24T09:00:39;11.40;99.90
23520;DHT22;11936;50.820;4.336;2023-04-24T09:03:10;11.40;99.90
23520;DHT22;11936;50.820;4.336;2023-04-24T09:05:36;11.40;99.90
23520;DHT22;11936;50.820;4.336;2023-04-24T09:08:02;11.60;99.90
23520;DHT22;11936;50.820;4.336;2023-04-24T09:10:29;11.50;99.90
23520;DHT22;11936;50.820;4.336;2023-04-24T09:12:56;11.60;99.90
23520;DHT22;11936;50.820;4.336;2023-04-24T09:15:24;11.70;99.90
23520;DHT22;11936;50.820;4.336;2023-04-24T09:17:50;11.70;99.90
23520;DHT22;11936;50.820;4.336;2023-04-24T09:20:16;11.80;99.90
23520;DHT22;11936;50.820;4.336;2023-04-24T09:22:45;11.90;99.90
23520;DHT22;11936;50.820;4.336;2023-04-24T09:25:10;11.90;99.90
23520;DHT22;11936;50.820;4.336;2023-04-24T09:27:42;11.80;99.90
23520;DHT22;11936;50.820;4.336;2023-04-24T09:30:10;11.80;99.90
23520;DHT22;11936;50.820;4.336;2023-04-24T09:32:35;11.80;99.90
23520;DHT22;11936;50.820;4.336;2023-04-24T09:35:09;11.60;99.90
23520;DHT22;11936;50.820;4.336;2023-04-24T09:37:37;11.60;99.90
23520;DHT22;11936;50.820;4.336;2023-04-24T09:40:16;11.60;99.90
23520;DHT22;11936;50.820;4.336;2023-04-24T09:43:02;11.70;99.90
23520;DHT22;11936;50.820;4.336;2023-04-24T09:45:35;11.80;99.90
23520;DHT22;11936;50.820;4.336;2023-04-24T09:48:01;11.90;99.90
23520;DHT22;11936;50.820;4.336;2023-04-24T09:50:27;12.00;99.90
23520;DHT22;11936;50.820;4.336;2023-04-24T09:53:05;12.10;99.90
23520;DHT22;11936;50.820;4.336;2023-04-24T09:55:39;12.00;99.90
23520;DHT22;11936;50.820;4.336;2023-04-24T09:58:08;12.10;99.90
23520;DHT22;11936;50.820;4.336;2023-04-24T10:00:34;12.10;99.90
23520;DHT22;11936;50.820;4.336;2023-04-24T10:03:01;12.10;99.90
23520;DHT22;11936;50.820;4.336;2023-04-24T10:08:11;12.20;99.90
23520;DHT22;11936;50.820;4.336;2023-04-24T10:10:42;12.10;99.90
23520;DHT22;11936;50.820;4.336;2023-04-24T10:13:10;12.00;99.90
23520;DHT22;11936;50.820;4.336;2023-04-24T10:15:37;12.00;99.90
23520;DHT22;11936;50.820;4.336;2023-04-24T10:18:04;12.10;99.90
23520;DHT22;11936;50.820;4.336;2023-04-24T10:20:32;12.10;99.90
23520;DHT22;11936;50.820;4.336;2023-04-24T10:22:59;12.10;99.90
23520;DHT22;11936;50.820;4.336;2023-04-24T10:25:31;12.00;99.90
23520;DHT22;11936;50.820;4.336;2023-04-24T10:27:58;12.00;99.90
23520;DHT22;11936;50.820;4.336;2023-04-24T10:30:26;12.10;99.90
23520;DHT22;11936;50.820;4.336;2023-04-24T10:32:52;12.10;99.90
23520;DHT22;11936;50.820;4.336;2023-04-24T10:35:18;12.00;99.90
23520;DHT22;11936;50.820;4.336;2023-04-24T10:37:56;12.00;99.90
23520;DHT22;11936;50.820;4.336;2023-04-24T10:40:33;12.10;99.90
23520;DHT22;11936;50.820;4.336;2023-04-24T10:43:02;12.20;99.90
23520;DHT22;11936;50.820;4.336;2023-04-24T10:45:31;12.40;99.90
23520;DHT22;11936;50.820;4.336;2023-04-24T10:48:15;12.50;99.90
23520;DHT22;11936;50.820;4.336;2023-04-24T10:50:46;12.60;99.90
23520;DHT22;11936;50.820;4.336;2023-04-24T10:53:23;12.60;99.90
23520;DHT22;11936;50.820;4.336;2023-04-24T10:56:08;12.70;99.90
23520;DHT22;11936;50.820;4.336;2023-04-24T11:01:32;12.70;99.90
23520;DHT22;11936;50.820;4.336;2023-04-24T11:04:03;12.70;99.90
23520;DHT22;11936;50.820;4.336;2023-04-24T11:06:36;12.70;99.90
23520;DHT22;11936;50.820;4.336;2023-04-24T11:09:08;12.60;99.90
23520;DHT22;11936;50.820;4.336;2023-04-24T11:11:38;12.60;99.90
23520;DHT22;11936;50.820;4.336;2023-04-24T11:14:09;12.70;99.90
23520;DHT22;11936;50.820;4.336;2023-04-24T11:21:48;12.50;99.90
23520;DHT22;11936;50.820;4.336;2023-04-24T11:29:48;12.60;99.90
23520;DHT22;11936;50.820;4.336;2023-04-24T11:34:52;12.80;99.90
23520;DHT22;11936;50.820;4.336;2023-04-24T11:37:18;12.80;99.90
23520;DHT22;11936;50.820;4.336;2023-04-24T11:39:44;12.90;99.90
23520;DHT22;11936;50.820;4.336;2023-04-24T11:42:09;12.90;99.90
23520;DHT22;11936;50.820;4.336;2023-04-24T11:44:36;12.90;99.90
23520;DHT22;11936;50.820;4.336;2023-04-24T11:47:08;12.90;99.90
23520;DHT22;11936;50.820;4.336;2023-04-24T11:49:36;12.80;99.90
23520;DHT22;11936;50.820;4.336;2023-04-24T11:52:02;12.90;99.90
23520;DHT22;11936;50.820;4.336;2023-04-24T11:54:30;13.00;99.90
23520;DHT22;11936;50.820;4.336;2023-04-24T11:56:56;13.00;99.90
23520;DHT22;11936;50.820;4.336;2023-04-24T11:59:22;13.10;99.90
23520;DHT22;11936;50.820;4.336;2023-04-24T12:01:49;13.00;99.90
23520;DHT22;11936;50.820;4.336;2023-04-24T12:04:16;12.90;99.90
23520;DHT22;11936;50.820;4.336;2023-04-24T12:07:03;12.90;99.90
23520;DHT22;11936;50.820;4.336;2023-04-24T12:09:41;13.00;99.90
23520;DHT22;11936;50.820;4.336;2023-04-24T12:12:08;12.90;99.90
23520;DHT22;11936;50.820;4.336;2023-04-24T12:14:42;12.90;99.90
23520;DHT22;11936;50.820;4.336;2023-04-24T12:17:08;13.10;99.90
23520;DHT22;11936;50.820;4.336;2023-04-24T12:19:33;13.00;99.90
23520;DHT22;11936;50.820;4.336;2023-04-24T12:22:01;13.10;99.90
23520;DHT22;11936;50.820;4.336;2023-04-24T12:24:26;13.20;99.90
23520;DHT22;11936;50.820;4.336;2023-04-24T12:26:52;13.20;99.90
23520;DHT22;11936;50.820;4.336;2023-04-24T12:29:22;13.20;99.90
23520;DHT22;11936;50.820;4.336;2023-04-24T12:31:48;13.20;99.90
23520;DHT22;11936;50.820;4.336;2023-04-24T12:34:21;13.20;99.90
23520;DHT22;11936;50.820;4.336;2023-04-24T12:36:47;13.20;99.90
23520;DHT22;11936;50.820;4.336;2023-04-24T12:39:19;13.20;99.90
23520;DHT22;11936;50.820;4.336;2023-04-24T12:41:50;13.00;99.90
23520;DHT22;11936;50.820;4.336;2023-04-24T12:44:16;12.90;99.90
23520;DHT22;11936;50.820;4.336;2023-04-24T12:46:43;13.10;99.90
23520;DHT22;11936;50.820;4.336;2023-04-24T12:49:09;13.30;99.90
23520;DHT22;11936;50.820;4.336;2023-04-24T12:51:35;13.30;99.90
23520;DHT22;11936;50.820;4.336;2023-04-24T12:54:01;13.30;99.90
23520;DHT22;11936;50.820;4.336;2023-04-24T12:56:26;13.30;99.90
23520;DHT22;11936;50.820;4.336;2023-04-24T12:58:52;13.40;99.90
23520;DHT22;11936;50.820;4.336;2023-04-24T13:01:18;13.50;99.90
23520;DHT22;11936;50.820;4.336;2023-04-24T13:03:43;13.60;99.90
23520;DHT22;11936;50.820;4.336;2023-04-24T13:06:09;13.50;99.90
23520;DHT22;11936;50.820;4.336;2023-04-24T13:08:34;13.50;99.90
23520;DHT22;11936;50.820;4.336;2023-04-24T13:11:00;13.50;99.90
23520;DHT22;11936;50.820;4.336;2023-04-24T13:13:26;13.60;99.90
23520;DHT22;11936;50.820;4.336;2023-04-24T13:15:51;13.50;99.90
23520;DHT22;11936;50.820;4.336;2023-04-24T13:18:17;13.40;99.90
23520;DHT22;11936;50.820;4.336;2023-04-24T13:20:42;13.40;99.90
23520;DHT22;11936;50.820;4.336;2023-04-24T13:23:09;13.60;99.90
23520;DHT22;11936;50.820;4.336;2023-04-24T13:25:36;13.70;99.90
23520;DHT22;11936;50.820;4.336;2023-04-24T13:28:04;13.90;99.90
23520;DHT22;11936;50.820;4.336;2023-04-24T13:30:30;14.10;99.90
23520;DHT22;11936;50.820;4.336;2023-04-24T13:32:56;14.10;99.90
23520;DHT22;11936;50.820;4.336;2023-04-24T13:35:22;13.90;99.90
23520;DHT22;11936;50.820;4.336;2023-04-24T13:37:47;14.00;99.90
23520;DHT22;11936;50.820;4.336;2023-04-24T13:40:13;14.00;99.90
23520;DHT22;11936;50.820;4.336;2023-04-24T13:42:40;14.00;99.90
23520;DHT22;11936;50.820;4.336;2023-04-24T13:45:06;14.10;99.90
23520;DHT22;11936;50.820;4.336;2023-04-24T13:47:32;14.20;99.90
23520;DHT22;11936;50.820;4.336;2023-04-24T13:49:57;14.30;99.90
23520;DHT22;11936;50.820;4.336;2023-04-24T13:52:23;14.30;99.90
23520;DHT22;11936;50.820;4.336;2023-04-24T13:54:49;14.50;99.90
23520;DHT22;11936;50.820;4.336;2023-04-24T13:57:14;14.50;99.90
23520;DHT22;11936;50.820;4.336;2023-04-24T13:59:41;14.20;99.90
23520;DHT22;11936;50.820;4.336;2023-04-24T14:02:06;14.00;99.90
23520;DHT22;11936;50.820;4.336;2023-04-24T14:04:32;13.90;99.90
23520;DHT22;11936;50.820;4.336;2023-04-24T14:06:57;14.00;99.90
23520;DHT22;11936;50.820;4.336;2023-04-24T14:09:23;13.90;99.90
23520;DHT22;11936;50.820;4.336;2023-04-24T14:11:49;14.10;99.90
23520;DHT22;11936;50.820;4.336;2023-04-24T14:14:14;14.20;99.90
23520;DHT22;11936;50.820;4.336;2023-04-24T14:16:40;14.30;99.90
23520;DHT22;11936;50.820;4.336;2023-04-24T14:19:06;14.10;99.90
23520;DHT22;11936;50.820;4.336;2023-04-24T14:21:32;13.90;99.90
23520;DHT22;11936;50.820;4.336;2023-04-24T14:23:58;13.80;99.80
23520;DHT22;11936;50.820;4.336;2023-04-24T14:26:23;13.90;99.80
23520;DHT22;11936;50.820;4.336;2023-04-24T14:28:50;13.90;99.50
23520;DHT22;11936;50.820;4.336;2023-04-24T14:31:16;13.80;99.30
23520;DHT22;11936;50.820;4.336;2023-04-24T14:33:41;13.80;99.40
23520;DHT22;11936;50.820;4.336;2023-04-24T14:36:07;13.90;98.80
23520;DHT22;11936;50.820;4.336;2023-04-24T14:38:34;13.80;99.30
23520;DHT22;11936;50.820;4.336;2023-04-24T14:41:00;13.70;99.20
23520;DHT22;11936;50.820;4.336;2023-04-24T14:43:26;13.70;98.50
23520;DHT22;11936;50.820;4.336;2023-04-24T14:45:52;13.70;98.10
23520;DHT22;11936;50.820;4.336;2023-04-24T14:48:18;13.80;98.00
23520;DHT22;11936;50.820;4.336;2023-04-24T14:50:44;13.70;98.20
23520;DHT22;11936;50.820;4.336;2023-04-24T14:53:10;13.60;98.90
23520;DHT22;11936;50.820;4.336;2023-04-24T14:55:36;13.70;99.10
23520;DHT22;11936;50.820;4.336;2023-04-24T14:58:02;13.80;98.80
23520;DHT22;11936;50.820;4.336;2023-04-24T15:00:28;14.00;98.40
23520;DHT22;11936;50.820;4.336;2023-04-24T15:03:06;14.00;98.30
23520;DHT22;11936;50.820;4.336;2023-04-24T15:05:38;14.10;99.60
23520;DHT22;11936;50.820;4.336;2023-04-24T15:08:10;14.10;99.00
23520;DHT22;11936;50.820;4.336;2023-04-24T15:10:36;13.80;98.70
23520;DHT22;11936;50.820;4.336;2023-04-24T15:13:01;13.70;99.80
23520;DHT22;11936;50.820;4.336;2023-04-24T15:15:29;13.70;99.70
23520;DHT22;11936;50.820;4.336;2023-04-24T15:17:55;13.80;99.40
23520;DHT22;11936;50.820;4.336;2023-04-24T15:20:21;13.80;99.00
23520;DHT22;11936;50.820;4.336;2023-04-24T15:22:46;13.80;99.00
23520;DHT22;11936;50.820;4.336;2023-04-24T15:25:12;13.70;98.90
23520;DHT22;11936;50.820;4.336;2023-04-24T15:27:42;13.70;99.00
23520;DHT22;11936;50.820;4.336;2023-04-24T15:30:09;13.90;98.50
23520;DHT22;11936;50.820;4.336;2023-04-24T15:32:35;13.90;98.60
23520;DHT22;11936;50.820;4.336;2023-04-24T15:35:01;14.10;97.90
23520;DHT22;11936;50.820;4.336;2023-04-24T15:37:27;14.10;98.00
23520;DHT22;11936;50.820;4.336;2023-04-24T15:39:52;13.90;98.60
23520;DHT22;11936;50.820;4.336;2023-04-24T15:42:21;13.80;98.20
23520;DHT22;11936;50.820;4.336;2023-04-24T15:44:46;13.90;98.90
23520;DHT22;11936;50.820;4.336;2023-04-24T15:47:12;13.80;99.10